OAL658 LGSK-LGAV
Flight info
| Callsign | OAL658 |
|---|---|
| Flight time | 0h 37m |
| Altitude | 13000 |
| Route | SIGFO M749 ROPOX |
| Aircraft | AT76/M-SDFGIRY/S |
Departure
| Time | 2026-04-26 11:19 |
|---|---|
| Airport | Skiathos Island National Airport (LGSK) |
Arrival
| Time | 2026-04-26 11:57 |
|---|---|
| Airport | Athens Eleftherios Venizelos International Airport (LGAV) |
| Time | Latitude | Longitude | Altitude | Speed | Heading |
|---|---|---|---|---|---|
| 2026-04-26 11:03 | 39.17687 | 23.50197 | 33 ft | 0 kts | 322° |
| 2026-04-26 11:15 | 39.17695 | 23.50197 | 33 ft | 4 kts | 3° |
| 2026-04-26 11:15 | 39.17702 | 23.50210 | 34 ft | 1 kts | 69° |
| 2026-04-26 11:15 | 39.17704 | 23.50264 | 36 ft | 7 kts | 89° |
| 2026-04-26 11:16 | 39.17686 | 23.50321 | 37 ft | 13 kts | 134° |
| 2026-04-26 11:16 | 39.17590 | 23.50318 | 34 ft | 16 kts | 199° |
| 2026-04-26 11:16 | 39.17477 | 23.50266 | 30 ft | 19 kts | 199° |
| 2026-04-26 11:16 | 39.17347 | 23.50206 | 26 ft | 20 kts | 201° |
| 2026-04-26 11:17 | 39.17212 | 23.50136 | 21 ft | 21 kts | 200° |
| 2026-04-26 11:17 | 39.17093 | 23.50079 | 17 ft | 15 kts | 204° |
| 2026-04-26 11:17 | 39.17023 | 23.50041 | 12 ft | 5 kts | 121° |
| 2026-04-26 11:17 | 39.17032 | 23.50052 | 13 ft | 0 kts | 20° |
| 2026-04-26 11:18 | 39.17057 | 23.50064 | 14 ft | 13 kts | 20° |
| 2026-04-26 11:18 | 39.17216 | 23.50134 | 21 ft | 44 kts | 18° |
| 2026-04-26 11:18 | 39.17691 | 23.50342 | 38 ft | 99 kts | 20° |
| 2026-04-26 11:19 | 39.18487 | 23.50676 | 146 ft | 132 kts | 16° |
| 2026-04-26 11:19 | 39.19311 | 23.50944 | 805 ft | 115 kts | 13° |
| 2026-04-26 11:19 | 39.20182 | 23.51219 | 1048 ft | 141 kts | 12° |
| 2026-04-26 11:19 | 39.21121 | 23.51510 | 1629 ft | 140 kts | 12° |
| 2026-04-26 11:20 | 39.22115 | 23.51781 | 2023 ft | 147 kts | 10° |
| 2026-04-26 11:20 | 39.22786 | 23.52017 | 2149 ft | 158 kts | 17° |
| 2026-04-26 11:20 | 39.24257 | 23.52787 | 2392 ft | 177 kts | 22° |
| 2026-04-26 11:20 | 39.25381 | 23.53440 | 2763 ft | 177 kts | 22° |
| 2026-04-26 11:21 | 39.26507 | 23.54093 | 3151 ft | 177 kts | 22° |
| 2026-04-26 11:21 | 39.27577 | 23.54858 | 3465 ft | 179 kts | 45° |
| 2026-04-26 11:21 | 39.27991 | 23.56358 | 3825 ft | 184 kts | 89° |
| 2026-04-26 11:21 | 39.27845 | 23.58015 | 4193 ft | 187 kts | 99° |
| 2026-04-26 11:22 | 39.27517 | 23.59640 | 4583 ft | 188 kts | 105° |
| 2026-04-26 11:22 | 39.27093 | 23.61241 | 4947 ft | 189 kts | 108° |
| 2026-04-26 11:22 | 39.26595 | 23.62813 | 5261 ft | 190 kts | 122° |
| 2026-04-26 11:22 | 39.25526 | 23.63787 | 5579 ft | 194 kts | 168° |
| 2026-04-26 11:23 | 39.24180 | 23.63886 | 5939 ft | 194 kts | 184° |
| 2026-04-26 11:23 | 39.22841 | 23.63677 | 6291 ft | 194 kts | 193° |
| 2026-04-26 11:23 | 39.21531 | 23.63247 | 6628 ft | 194 kts | 199° |
| 2026-04-26 11:23 | 39.20251 | 23.62688 | 6961 ft | 194 kts | 201° |
| 2026-04-26 11:24 | 39.18982 | 23.62091 | 7301 ft | 194 kts | 202° |
| 2026-04-26 11:24 | 39.17691 | 23.61584 | 7604 ft | 196 kts | 186° |
| 2026-04-26 11:24 | 39.16340 | 23.61683 | 7902 ft | 198 kts | 175° |
| 2026-04-26 11:24 | 39.14970 | 23.61925 | 8206 ft | 199 kts | 173° |
| 2026-04-26 11:25 | 39.13597 | 23.62187 | 8510 ft | 200 kts | 173° |
| 2026-04-26 11:25 | 39.12218 | 23.62444 | 8816 ft | 200 kts | 173° |
| 2026-04-26 11:25 | 39.10835 | 23.62680 | 9138 ft | 201 kts | 175° |
| 2026-04-26 11:25 | 39.09444 | 23.62897 | 9446 ft | 201 kts | 175° |
| 2026-04-26 11:26 | 39.08053 | 23.63108 | 9762 ft | 201 kts | 175° |
| 2026-04-26 11:26 | 39.06661 | 23.63315 | 10037 ft | 202 kts | 175° |
| 2026-04-26 11:26 | 39.05258 | 23.63523 | 10287 ft | 203 kts | 175° |
| 2026-04-26 11:26 | 39.03849 | 23.63733 | 10542 ft | 204 kts | 175° |
| 2026-04-26 11:27 | 39.02432 | 23.63942 | 10797 ft | 206 kts | 175° |
| 2026-04-26 11:27 | 39.01006 | 23.64152 | 11051 ft | 207 kts | 175° |
| 2026-04-26 11:27 | 38.99571 | 23.64364 | 11297 ft | 208 kts | 175° |
| 2026-04-26 11:27 | 38.98127 | 23.64577 | 11544 ft | 209 kts | 175° |
| 2026-04-26 11:28 | 38.96676 | 23.64792 | 11783 ft | 211 kts | 175° |
| 2026-04-26 11:28 | 38.95216 | 23.65009 | 12021 ft | 212 kts | 175° |
| 2026-04-26 11:28 | 38.93744 | 23.65231 | 12256 ft | 213 kts | 175° |
| 2026-04-26 11:28 | 38.92268 | 23.65443 | 12499 ft | 214 kts | 175° |
| 2026-04-26 11:29 | 38.90779 | 23.65660 | 12741 ft | 215 kts | 175° |
| 2026-04-26 11:29 | 38.89276 | 23.65881 | 12902 ft | 221 kts | 175° |
| 2026-04-26 11:29 | 38.87720 | 23.66107 | 12979 ft | 229 kts | 175° |
| 2026-04-26 11:29 | 38.86108 | 23.66339 | 13004 ft | 237 kts | 175° |
| 2026-04-26 11:30 | 38.84441 | 23.66566 | 13030 ft | 244 kts | 175° |
| 2026-04-26 11:30 | 38.83310 | 23.66721 | 13036 ft | 249 kts | 175° |
| 2026-04-26 11:30 | 38.80976 | 23.67039 | 13041 ft | 255 kts | 175° |
| 2026-04-26 11:30 | 38.79196 | 23.67296 | 13043 ft | 259 kts | 174° |
| 2026-04-26 11:31 | 38.77393 | 23.67559 | 13039 ft | 262 kts | 174° |
| 2026-04-26 11:31 | 38.75570 | 23.67827 | 13040 ft | 265 kts | 174° |
| 2026-04-26 11:31 | 38.73734 | 23.68096 | 13045 ft | 267 kts | 174° |
| 2026-04-26 11:31 | 38.71878 | 23.68367 | 13049 ft | 269 kts | 174° |
| 2026-04-26 11:32 | 38.70009 | 23.68641 | 13035 ft | 271 kts | 174° |
| 2026-04-26 11:32 | 38.68131 | 23.68918 | 13046 ft | 272 kts | 174° |
| 2026-04-26 11:32 | 38.66249 | 23.69195 | 13035 ft | 272 kts | 174° |
| 2026-04-26 11:32 | 38.64364 | 23.69468 | 13041 ft | 273 kts | 174° |
| 2026-04-26 11:33 | 38.62477 | 23.69746 | 13028 ft | 273 kts | 174° |
| 2026-04-26 11:33 | 38.60591 | 23.70021 | 13040 ft | 273 kts | 174° |
| 2026-04-26 11:33 | 38.58707 | 23.70295 | 13037 ft | 273 kts | 174° |
| 2026-04-26 11:33 | 38.56816 | 23.70572 | 13040 ft | 273 kts | 174° |
| 2026-04-26 11:34 | 38.54953 | 23.70842 | 13043 ft | 273 kts | 174° |
| 2026-04-26 11:34 | 38.53066 | 23.71125 | 13048 ft | 272 kts | 174° |
| 2026-04-26 11:34 | 38.51190 | 23.71422 | 13039 ft | 271 kts | 174° |
| 2026-04-26 11:34 | 38.49314 | 23.71733 | 13038 ft | 272 kts | 174° |
| 2026-04-26 11:35 | 38.47431 | 23.72020 | 13029 ft | 273 kts | 174° |
| 2026-04-26 11:35 | 38.45540 | 23.72295 | 13032 ft | 273 kts | 174° |
| 2026-04-26 11:35 | 38.43651 | 23.72570 | 13034 ft | 273 kts | 174° |
| 2026-04-26 11:35 | 38.42375 | 23.72752 | 13038 ft | 273 kts | 174° |
| 2026-04-26 11:36 | 38.39870 | 23.73110 | 13106 ft | 272 kts | 174° |
| 2026-04-26 11:36 | 38.38001 | 23.73371 | 13210 ft | 269 kts | 174° |
| 2026-04-26 11:36 | 38.36132 | 23.73623 | 13196 ft | 272 kts | 175° |
| 2026-04-26 11:36 | 38.34231 | 23.73888 | 13101 ft | 277 kts | 174° |
| 2026-04-26 11:37 | 38.32308 | 23.74151 | 13055 ft | 279 kts | 175° |
| 2026-04-26 11:37 | 38.30332 | 23.74430 | 12613 ft | 292 kts | 175° |
| 2026-04-26 11:37 | 38.28305 | 23.74717 | 12006 ft | 293 kts | 175° |
| 2026-04-26 11:37 | 38.26290 | 23.75012 | 11454 ft | 290 kts | 175° |
| 2026-04-26 11:38 | 38.24310 | 23.75297 | 10977 ft | 284 kts | 175° |
| 2026-04-26 11:38 | 38.22367 | 23.75580 | 10524 ft | 278 kts | 175° |
| 2026-04-26 11:38 | 38.20454 | 23.75860 | 9995 ft | 275 kts | 175° |
| 2026-04-26 11:38 | 38.18566 | 23.76133 | 9438 ft | 270 kts | 175° |
| 2026-04-26 11:39 | 38.16742 | 23.75916 | 8827 ft | 262 kts | 200° |
| 2026-04-26 11:39 | 38.15093 | 23.74936 | 8222 ft | 261 kts | 212° |
| 2026-04-26 11:39 | 38.13585 | 23.73681 | 7581 ft | 260 kts | 217° |
| 2026-04-26 11:39 | 38.12118 | 23.72353 | 7045 ft | 257 kts | 217° |
| 2026-04-26 11:40 | 38.10656 | 23.71044 | 6508 ft | 256 kts | 217° |
| 2026-04-26 11:40 | 38.09182 | 23.69771 | 5967 ft | 256 kts | 216° |
| 2026-04-26 11:40 | 38.07691 | 23.68522 | 5413 ft | 256 kts | 215° |
| 2026-04-26 11:40 | 38.06204 | 23.67280 | 4925 ft | 255 kts | 215° |
| 2026-04-26 11:41 | 38.04723 | 23.66037 | 4377 ft | 256 kts | 215° |
| 2026-04-26 11:42 | 37.95172 | 23.58165 | 3654 ft | 223 kts | 213° |
| 2026-04-26 11:43 | 37.93843 | 23.57095 | 3578 ft | 223 kts | 214° |
| 2026-04-26 11:43 | 37.92564 | 23.56042 | 3553 ft | 221 kts | 214° |
| 2026-04-26 11:43 | 37.91279 | 23.54986 | 3534 ft | 220 kts | 214° |
| 2026-04-26 11:43 | 37.89997 | 23.53937 | 3527 ft | 218 kts | 214° |
| 2026-04-26 11:44 | 37.88727 | 23.52897 | 3522 ft | 217 kts | 214° |
| 2026-04-26 11:44 | 37.87462 | 23.51861 | 3517 ft | 216 kts | 214° |
| 2026-04-26 11:44 | 37.86201 | 23.50829 | 3510 ft | 215 kts | 214° |
| 2026-04-26 11:44 | 37.84942 | 23.49802 | 3499 ft | 215 kts | 214° |
| 2026-04-26 11:45 | 37.83684 | 23.48778 | 3496 ft | 214 kts | 214° |
| 2026-04-26 11:45 | 37.82428 | 23.47764 | 3503 ft | 214 kts | 214° |
| 2026-04-26 11:45 | 37.81169 | 23.46760 | 3523 ft | 214 kts | 214° |
| 2026-04-26 11:45 | 37.79981 | 23.45659 | 3507 ft | 209 kts | 232° |
| 2026-04-26 11:46 | 37.79153 | 23.44198 | 3504 ft | 204 kts | 227° |
| 2026-04-26 11:46 | 37.77943 | 23.43282 | 3500 ft | 208 kts | 192° |
| 2026-04-26 11:46 | 37.76526 | 23.43550 | 3464 ft | 213 kts | 152° |
| 2026-04-26 11:46 | 37.75492 | 23.44904 | 3283 ft | 218 kts | 118° |
| 2026-04-26 11:47 | 37.75086 | 23.46697 | 3142 ft | 211 kts | 84° |
| 2026-04-26 11:47 | 37.75571 | 23.48354 | 3121 ft | 194 kts | 57° |
| 2026-04-26 11:47 | 37.75882 | 23.49959 | 3092 ft | 189 kts | 91° |
| 2026-04-26 11:47 | 37.75818 | 23.51047 | 3081 ft | 186 kts | 91° |
| 2026-04-26 11:48 | 37.75726 | 23.52674 | 3076 ft | 186 kts | 91° |
| 2026-04-26 11:48 | 37.75624 | 23.54323 | 3073 ft | 190 kts | 92° |
| 2026-04-26 11:48 | 37.75507 | 23.55990 | 3068 ft | 191 kts | 92° |
| 2026-04-26 11:48 | 37.75393 | 23.57664 | 3045 ft | 191 kts | 92° |
| 2026-04-26 11:49 | 37.75279 | 23.59332 | 3036 ft | 190 kts | 92° |
| 2026-04-26 11:49 | 37.75162 | 23.60992 | 3036 ft | 189 kts | 92° |
| 2026-04-26 11:49 | 37.75047 | 23.62645 | 3030 ft | 188 kts | 92° |
| 2026-04-26 11:49 | 37.74929 | 23.64288 | 3034 ft | 188 kts | 93° |
| 2026-04-26 11:50 | 37.74815 | 23.65929 | 3031 ft | 187 kts | 92° |
| 2026-04-26 11:50 | 37.74698 | 23.67562 | 3033 ft | 187 kts | 93° |
| 2026-04-26 11:50 | 37.74581 | 23.69193 | 3033 ft | 186 kts | 93° |
| 2026-04-26 11:50 | 37.74464 | 23.70821 | 3026 ft | 186 kts | 92° |
| 2026-04-26 11:51 | 37.74344 | 23.72445 | 3033 ft | 186 kts | 93° |
| 2026-04-26 11:51 | 37.74230 | 23.74069 | 3033 ft | 185 kts | 91° |
| 2026-04-26 11:51 | 37.74522 | 23.75571 | 3039 ft | 175 kts | 50° |
| 2026-04-26 11:51 | 37.75308 | 23.76727 | 3031 ft | 174 kts | 45° |
| 2026-04-26 11:52 | 37.76148 | 23.77831 | 3029 ft | 174 kts | 39° |
| 2026-04-26 11:52 | 37.77057 | 23.78835 | 3023 ft | 174 kts | 38° |
| 2026-04-26 11:52 | 37.77994 | 23.79802 | 3025 ft | 174 kts | 37° |
| 2026-04-26 11:52 | 37.78939 | 23.80757 | 3022 ft | 174 kts | 36° |
| 2026-04-26 11:53 | 37.79966 | 23.81567 | 3001 ft | 175 kts | 23° |
| 2026-04-26 11:53 | 37.81084 | 23.82155 | 2994 ft | 173 kts | 21° |
| 2026-04-26 11:53 | 37.82194 | 23.82758 | 3062 ft | 175 kts | 23° |
| 2026-04-26 11:54 | 37.84391 | 23.84388 | 2722 ft | 185 kts | 34° |
| 2026-04-26 11:54 | 37.85399 | 23.85421 | 2200 ft | 185 kts | 38° |
| 2026-04-26 11:54 | 37.86401 | 23.86384 | 1826 ft | 176 kts | 34° |
| 2026-04-26 11:54 | 37.87364 | 23.87302 | 1413 ft | 171 kts | 37° |
| 2026-04-26 11:55 | 37.88282 | 23.88178 | 1230 ft | 159 kts | 36° |
| 2026-04-26 11:55 | 37.89151 | 23.88991 | 1139 ft | 144 kts | 36° |
| 2026-04-26 11:55 | 37.89915 | 23.89728 | 953 ft | 130 kts | 37° |
| 2026-04-26 11:55 | 37.90580 | 23.90369 | 795 ft | 111 kts | 36° |
| 2026-04-26 11:56 | 37.91206 | 23.90959 | 614 ft | 113 kts | 39° |
| 2026-04-26 11:56 | 37.91847 | 23.91560 | 488 ft | 116 kts | 37° |
| 2026-04-26 11:56 | 37.92487 | 23.92201 | 331 ft | 117 kts | 39° |
| 2026-04-26 11:56 | 37.93074 | 23.92758 | 290 ft | 91 kts | 41° |
| 2026-04-26 11:57 | 37.93313 | 23.93006 | 285 ft | 15 kts | 69° |
| 2026-04-26 11:57 | 37.93305 | 23.93080 | 291 ft | 0 kts | 119° |
| 2026-04-26 11:57 | 37.93290 | 23.93110 | 294 ft | 11 kts | 126° |
| 2026-04-26 11:57 | 37.93256 | 23.93172 | 295 ft | 7 kts | 107° |
| 2026-04-26 11:58 | 37.93316 | 23.93280 | 295 ft | 20 kts | 32° |
| 2026-04-26 11:58 | 37.93411 | 23.93365 | 296 ft | 14 kts | 43° |
| 2026-04-26 11:58 | 37.93412 | 23.93469 | 298 ft | 17 kts | 136° |
| 2026-04-26 11:58 | 37.93340 | 23.93579 | 297 ft | 15 kts | 124° |
| 2026-04-26 11:59 | 37.93287 | 23.93680 | 300 ft | 13 kts | 123° |
| 2026-04-26 11:59 | 37.93235 | 23.93770 | 297 ft | 13 kts | 127° |
| 2026-04-26 11:59 | 37.93181 | 23.93856 | 300 ft | 12 kts | 127° |
| 2026-04-26 11:59 | 37.93136 | 23.93941 | 298 ft | 11 kts | 120° |
| 2026-04-26 12:00 | 37.93096 | 23.94019 | 300 ft | 11 kts | 125° |
| 2026-04-26 12:00 | 37.93048 | 23.94089 | 298 ft | 11 kts | 137° |
| 2026-04-26 12:00 | 37.93004 | 23.94101 | 298 ft | 10 kts | 219° |
| 2026-04-26 12:00 | 37.92936 | 23.94032 | 298 ft | 0 kts | 218° |